Rancho Cucamonga, California
Current Conditions -  °F | °C
As of 6:53 PM on Wednesday 22 Oct 2014 (Local Time) from KONT Reporting Station
Broken Clouds Broken Clouds  
Wind Chill: 77°   Ceiling: 25000
Heat Index: 79°   Visibility: 10mi
Dew Point: 58°   Wind: 7mph
Humidity: 52%   Direction: 240°WSW
Pressure: 29.92"   Gusts: NA
Location:  34.1°N, 117.57°W
Report Text: KONT 230153Z 24006KT 10SM BKN250 25/14 A2992 RMK AO2 SLP121 T02500144
Loading
Personal Weather Stations






























Interactive Weather Map New forecast layout! Learn more

10-Day Weather Forecast

Advertisements
Track Severe Weather on mobile